フランクフルト の空港の天気 - METARとTAF

フランクフルト国際空港 ( EDDF / FRA ) - ドイツ フランクフルト・アム・マイン
飛行場実況気象(Metar)
観測時間11/17 18:50 CET (11/17 17:50 UTC)
風向・風速北北東 5m/s
視程10km以上
天気現象
なし
気温6℃
湿度61%
気圧1029hPa
METAREDDF 171750Z 03010KT CAVOK 06/M01 Q1029 NOSIG
過去の天気等 Google飛行場航空写真 Wunderground天気予報

過去48時間のMETAR

飛行場予報(TAF)
発表時間: 11/17 18:00 CET (11/17 17:00 UTC)
予報対象時間: 17日19時 CET ~ 19日1時 CET
風向・風速北北東 5m/s
視程10km以上
なし
18日13時 CET ~ 18日16時 CET に 確率 30% で一時的に
風向・風速北東 8m/s 瞬間風速 13m/s
TAF EDDF 171700Z 1718/1824 03010KT CAVOK
PROB30 TEMPO 1812/1815 04015G25KT